createdAt,value
2023-05-09T00:00:47.919Z,12
2023-05-09T00:03:19.757Z,14
2023-05-09T00:05:50.757Z,16
2023-05-09T00:08:21.628Z,15
2023-05-09T00:10:52.126Z,20
2023-05-09T00:13:22.874Z,19
2023-05-09T00:15:53.534Z,19
2023-05-09T00:18:24.282Z,16
2023-05-09T00:20:55.601Z,19
2023-05-09T00:23:26.381Z,17
2023-05-09T00:25:57.573Z,12
2023-05-09T00:28:28.518Z,20
2023-05-09T00:30:59.313Z,17
2023-05-09T00:33:29.968Z,12
2023-05-09T00:36:01.156Z,19
2023-05-09T00:38:32.024Z,17
2023-05-09T00:41:03.279Z,23
2023-05-09T00:43:33.757Z,16
2023-05-09T00:46:04.245Z,17
2023-05-09T00:48:34.966Z,23
2023-05-09T00:51:06.029Z,19
2023-05-09T00:53:36.717Z,16
2023-05-09T00:56:07.529Z,16
2023-05-09T00:58:38.232Z,13
2023-05-09T01:01:09.357Z,16
2023-05-09T01:03:40.248Z,20
2023-05-09T01:06:11.329Z,23
2023-05-09T01:08:42.472Z,20
2023-05-09T01:11:13.669Z,16
2023-05-09T01:13:44.304Z,17
2023-05-09T01:16:15.134Z,20
2023-05-09T01:18:46.438Z,16
2023-05-09T01:21:17.418Z,21
2023-05-09T01:23:48.268Z,19
2023-05-09T01:26:18.913Z,19
2023-05-09T01:28:49.789Z,20
2023-05-09T01:31:20.971Z,20
2023-05-09T01:33:51.811Z,24
2023-05-09T01:36:22.591Z,21
2023-05-09T01:38:53.786Z,16
2023-05-09T01:41:25.069Z,21
2023-05-09T01:43:56.006Z,16
2023-05-09T01:46:30.820Z,17
2023-05-09T01:49:01.849Z,21
2023-05-09T01:51:32.588Z,21
2023-05-09T01:54:04.275Z,24
2023-05-09T01:56:39.444Z,19
2023-05-09T01:59:10.913Z,17
2023-05-09T02:01:42.062Z,21
2023-05-09T02:04:12.800Z,24
2023-05-09T02:06:43.378Z,20
2023-05-09T02:09:14.553Z,16
2023-05-09T02:11:45.347Z,24
2023-05-09T02:14:15.750Z,17
2023-05-09T02:16:46.838Z,24
2023-05-09T02:19:17.701Z,16
2023-05-09T02:21:48.509Z,21
2023-05-09T02:24:19.876Z,24
2023-05-09T02:26:51.270Z,19
2023-05-09T02:29:22.206Z,20
2023-05-09T02:31:53.164Z,16
2023-05-09T02:34:23.983Z,21
2023-05-09T02:36:55.035Z,20
2023-05-09T02:39:25.931Z,17
2023-05-09T02:41:56.390Z,19
2023-05-09T02:44:27.107Z,28
2023-05-09T02:46:57.864Z,17
2023-05-09T02:49:32.214Z,17
2023-05-09T02:51:59.435Z,20
2023-05-09T02:54:30.297Z,17
2023-05-09T02:57:00.926Z,24
2023-05-09T02:59:31.697Z,21
2023-05-09T03:02:02.561Z,27
2023-05-09T03:04:33.749Z,21
2023-05-09T03:07:04.816Z,25
2023-05-09T03:09:35.721Z,20
2023-05-09T03:12:06.718Z,19
2023-05-09T03:14:37.290Z,24
2023-05-09T03:17:08.241Z,21
2023-05-09T03:19:39.420Z,20
2023-05-09T03:22:10.516Z,25
2023-05-09T03:24:40.868Z,23
2023-05-09T03:27:11.648Z,16
2023-05-09T03:29:42.060Z,24
2023-05-09T03:32:14.630Z,24
2023-05-09T03:34:43.688Z,23
2023-05-09T03:37:14.145Z,20
2023-05-09T03:39:45.061Z,23
2023-05-09T03:42:15.865Z,20
2023-05-09T03:44:46.792Z,19
2023-05-09T03:47:17.804Z,21
2023-05-09T03:49:48.905Z,21
2023-05-09T03:52:19.647Z,22
2023-05-09T03:54:50.523Z,21
2023-05-09T03:57:21.227Z,21
2023-05-09T03:59:51.628Z,20
2023-05-09T04:02:22.500Z,20
2023-05-09T04:04:53.706Z,22
2023-05-09T04:07:24.860Z,22
2023-05-09T04:09:55.859Z,19
2023-05-09T04:12:26.915Z,17
2023-05-09T04:14:57.361Z,20
2023-05-09T04:17:28.558Z,24
2023-05-09T04:19:59.614Z,17
2023-05-09T04:22:30.174Z,23
2023-05-09T04:25:00.864Z,24
2023-05-09T04:27:30.932Z,28
2023-05-09T04:30:01.548Z,26
2023-05-09T04:32:32.238Z,28
2023-05-09T04:35:03.126Z,48
2023-05-09T04:37:34.108Z,28
2023-05-09T04:40:05.073Z,23
2023-05-09T04:42:35.681Z,37
2023-05-09T04:45:06.501Z,29
2023-05-09T04:47:37.386Z,24
2023-05-09T04:50:08.963Z,24
2023-05-09T04:52:40.318Z,23
2023-05-09T04:55:10.967Z,21
2023-05-09T04:57:41.661Z,20
2023-05-09T05:00:12.253Z,24
2023-05-09T05:02:42.920Z,20
2023-05-09T05:05:13.109Z,27
2023-05-09T05:07:44.143Z,17
2023-05-09T05:10:15.039Z,23
2023-05-09T05:12:46.058Z,20
2023-05-09T05:15:17.615Z,22
2023-05-09T05:17:48.797Z,19
2023-05-09T05:20:19.630Z,23
2023-05-09T05:22:50.664Z,21
2023-05-09T05:25:19.651Z,25
2023-05-09T05:27:49.835Z,24
2023-05-09T05:30:20.313Z,19
2023-05-09T05:32:50.888Z,30
2023-05-09T05:35:22.903Z,24
2023-05-09T05:37:53.706Z,24
2023-05-09T05:40:24.345Z,21
2023-05-09T05:42:54.914Z,23
2023-05-09T05:45:25.309Z,26
2023-05-09T05:47:55.724Z,25
2023-05-09T05:50:26.400Z,27
2023-05-09T05:52:57.025Z,28
2023-05-09T05:55:29.269Z,31
2023-05-09T05:57:58.973Z,33
2023-05-09T06:00:29.527Z,35
2023-05-09T06:02:59.134Z,27
2023-05-09T06:05:29.695Z,30
2023-05-09T06:08:00.544Z,28
2023-05-09T06:10:32.438Z,26
2023-05-09T06:13:03.052Z,31
2023-05-09T06:15:37.248Z,28
2023-05-09T06:18:07.757Z,32
2023-05-09T06:20:38.008Z,32
2023-05-09T06:23:08.477Z,31
2023-05-09T06:25:39.031Z,32
2023-05-09T06:28:09.579Z,33
2023-05-09T06:30:40.799Z,32
2023-05-09T06:33:11.103Z,36
2023-05-09T06:35:41.593Z,33
2023-05-09T06:38:12.468Z,35
2023-05-09T06:40:43.043Z,32
2023-05-09T06:43:13.529Z,40
2023-05-09T06:45:44.064Z,33
2023-05-09T06:48:18.827Z,30
2023-05-09T06:50:49.272Z,38
2023-05-09T06:53:19.897Z,37
2023-05-09T06:55:50.649Z,39
2023-05-09T06:58:21.151Z,40
2023-05-09T07:00:51.435Z,31
2023-05-09T07:03:22.371Z,46
2023-05-09T07:05:55.055Z,40
2023-05-09T07:08:27.171Z,48
2023-05-09T07:11:06.514Z,49
2023-05-09T07:13:36.586Z,52
2023-05-09T07:16:14.110Z,60
2023-05-09T07:18:46.725Z,73
2023-05-09T07:21:17.769Z,40
2023-05-09T07:23:49.236Z,43
2023-05-09T07:26:19.696Z,52
2023-05-09T07:28:50.199Z,44
2023-05-09T07:31:20.645Z,49
2023-05-09T07:33:51.030Z,68
2023-05-09T07:36:21.154Z,66
2023-05-09T07:38:51.999Z,50
2023-05-09T07:41:22.657Z,43
2023-05-09T07:43:53.223Z,37
2023-05-09T07:46:23.429Z,47
2023-05-09T07:48:56.266Z,31
2023-05-09T07:51:28.356Z,40
2023-05-09T07:53:59.469Z,38
2023-05-09T07:56:35.105Z,35
2023-05-09T07:59:06.146Z,34
2023-05-09T08:01:35.939Z,37
2023-05-09T08:04:06.904Z,29
2023-05-09T08:06:46.530Z,26
2023-05-09T08:09:17.953Z,29
2023-05-09T08:11:49.012Z,32
2023-05-09T08:14:19.687Z,32
2023-05-09T08:16:50.817Z,37
2023-05-09T08:19:20.993Z,38
2023-05-09T08:22:03.274Z,40
2023-05-09T08:24:33.721Z,38
2023-05-09T08:27:04.009Z,34
2023-05-09T08:29:34.089Z,39
2023-05-09T08:32:08.474Z,26
2023-05-09T08:34:39.152Z,33
2023-05-09T08:37:12.257Z,31
2023-05-09T08:39:50.171Z,28
2023-05-09T08:42:20.276Z,31
2023-05-09T08:44:50.652Z,33
2023-05-09T08:47:23.709Z,28
2023-05-09T08:49:55.399Z,30
2023-05-09T08:52:26.825Z,31
2023-05-09T08:54:57.623Z,30
2023-05-09T08:57:28.080Z,28
2023-05-09T08:59:58.755Z,28
2023-05-09T09:02:30.455Z,30
2023-05-09T09:05:03.042Z,31
2023-05-09T09:07:33.835Z,33
2023-05-09T09:10:13.845Z,28
2023-05-09T09:12:44.002Z,35
2023-05-09T09:15:17.238Z,25
2023-05-09T09:20:24.342Z,27
2023-05-09T09:22:54.293Z,21
2023-05-09T09:25:25.681Z,29
2023-05-09T09:27:55.937Z,35
2023-05-09T09:30:26.426Z,31
2023-05-09T09:32:56.346Z,23
2023-05-09T09:35:26.466Z,29
2023-05-09T09:37:58.481Z,28
2023-05-09T09:40:27.736Z,31
2023-05-09T09:43:02.348Z,30
2023-05-09T09:45:37.781Z,21
2023-05-09T09:48:10.265Z,28
2023-05-09T09:50:46.554Z,36
2023-05-09T09:55:57.440Z,26
2023-05-09T09:58:27.992Z,25
2023-05-09T10:01:02.996Z,24
2023-05-09T10:03:35.124Z,20
2023-05-09T10:06:05.820Z,23
2023-05-09T10:08:36.532Z,21
2023-05-09T10:11:08.385Z,21
2023-05-09T10:13:39.323Z,21
2023-05-09T10:16:10.466Z,17
2023-05-09T10:18:41.242Z,20
2023-05-09T10:21:11.695Z,19
2023-05-09T10:23:45.784Z,22
2023-05-09T10:26:19.359Z,20
2023-05-09T10:28:49.836Z,20
2023-05-09T10:31:21.021Z,18
2023-05-09T10:33:51.114Z,19
2023-05-09T10:36:23.523Z,17
2023-05-09T10:38:53.610Z,22
2023-05-09T10:41:24.336Z,20
2023-05-09T10:43:54.698Z,21
2023-05-09T10:46:29.290Z,18
2023-05-09T10:49:03.039Z,21
2023-05-09T10:51:33.225Z,23
2023-05-09T10:54:04.016Z,21
2023-05-09T10:56:34.704Z,21
2023-05-09T10:59:05.117Z,23
2023-05-09T11:01:35.780Z,23
2023-05-09T11:04:06.854Z,17
2023-05-09T11:06:37.651Z,20
2023-05-09T11:09:08.134Z,21
2023-05-09T11:11:38.864Z,22
2023-05-09T11:14:13.005Z,17
2023-05-09T11:16:44.690Z,19
2023-05-09T11:19:16.184Z,18
2023-05-09T11:21:47.777Z,21
2023-05-09T11:24:17.856Z,19
2023-05-09T11:26:48.628Z,17
2023-05-09T11:29:22.876Z,13
2023-05-09T11:31:53.465Z,16
2023-05-09T11:34:30.403Z,16
2023-05-09T11:37:03.672Z,17
2023-05-09T11:39:34.062Z,16
2023-05-09T11:42:04.221Z,12
2023-05-09T11:44:43.638Z,8
2023-05-09T11:47:14.013Z,17
2023-05-09T11:49:44.353Z,17
2023-05-09T11:52:15.015Z,15
2023-05-09T11:54:44.868Z,15
2023-05-09T11:57:15.413Z,13
2023-05-09T11:59:45.957Z,13
2023-05-09T12:02:20.649Z,14
2023-05-09T12:04:52.169Z,13
2023-05-09T12:07:22.912Z,15
2023-05-09T12:09:53.384Z,9
2023-05-09T12:12:27.655Z,8
2023-05-09T12:14:59.935Z,11
2023-05-09T12:17:32.071Z,15
2023-05-09T12:20:03.583Z,16
2023-05-09T12:22:33.963Z,15
2023-05-09T12:25:09.588Z,12
2023-05-09T12:27:42.879Z,12
2023-05-09T12:30:13.624Z,13
2023-05-09T12:32:44.004Z,17
2023-05-09T12:35:15.023Z,16
2023-05-09T12:37:47.422Z,15
2023-05-09T12:40:19.765Z,13
2023-05-09T12:42:50.263Z,13
2023-05-09T12:45:23.462Z,12
2023-05-09T12:48:03.064Z,8
2023-05-09T12:50:42.311Z,8
2023-05-09T12:53:13.691Z,11
2023-05-09T12:55:44.020Z,16
2023-05-09T12:58:17.964Z,13
2023-05-09T13:00:48.916Z,11
2023-05-09T13:03:19.388Z,11
2023-05-09T13:05:53.550Z,11
2023-05-09T13:08:23.820Z,9
2023-05-09T13:11:01.041Z,12
2023-05-09T13:13:24.773Z,11
2023-05-09T13:15:57.838Z,11
2023-05-09T13:18:29.211Z,9
2023-05-09T13:20:59.603Z,11
2023-05-09T13:23:31.118Z,13
2023-05-09T13:26:01.836Z,12
2023-05-09T13:28:31.898Z,16
2023-05-09T13:31:02.524Z,12
2023-05-09T13:33:32.729Z,11
2023-05-09T13:36:04.171Z,11
2023-05-09T13:38:37.456Z,11
2023-05-09T13:41:07.705Z,9
2023-05-09T13:43:38.019Z,15
2023-05-09T13:46:08.669Z,13
2023-05-09T13:48:39.772Z,12
2023-05-09T13:51:12.498Z,17
2023-05-09T13:53:43.044Z,16
2023-05-09T13:56:18.633Z,8
2023-05-09T13:58:49.383Z,13
2023-05-09T14:01:20.094Z,11
2023-05-09T14:03:50.708Z,11
2023-05-09T14:06:22.406Z,10
2023-05-09T14:08:56.763Z,12
2023-05-09T14:11:27.218Z,8
2023-05-09T14:13:58.198Z,8
2023-05-09T14:16:28.614Z,8
2023-05-09T14:18:59.004Z,8
2023-05-09T14:21:32.480Z,8
2023-05-09T14:24:03.104Z,11
2023-05-09T14:26:33.367Z,13
2023-05-09T14:29:03.705Z,9
2023-05-09T14:31:34.302Z,12
2023-05-09T14:34:04.402Z,12
2023-05-09T14:36:34.829Z,12
2023-05-09T14:39:04.904Z,19
2023-05-09T14:41:35.308Z,12
2023-05-09T14:44:09.410Z,8
2023-05-09T14:49:16.559Z,17
2023-05-09T14:51:47.146Z,11
2023-05-09T14:54:18.651Z,8
2023-05-09T14:56:47.800Z,11
2023-05-09T14:59:18.292Z,8
2023-05-09T15:01:48.646Z,8
2023-05-09T15:04:22.398Z,9
2023-05-09T15:06:53.068Z,9
2023-05-09T15:09:23.922Z,11
2023-05-09T15:11:58.541Z,6
2023-05-09T15:14:37.909Z,5
2023-05-09T15:17:09.233Z,11
2023-05-09T15:19:51.893Z,4
2023-05-09T15:22:22.372Z,7
2023-05-09T15:24:52.773Z,8
2023-05-09T15:27:26.507Z,8
2023-05-09T15:30:00.357Z,8
2023-05-09T15:32:31.823Z,7
2023-05-09T15:35:02.157Z,7
2023-05-09T15:37:34.372Z,7
2023-05-09T15:40:04.297Z,7
2023-05-09T15:42:34.803Z,8
2023-05-09T15:45:06.174Z,9
2023-05-09T15:47:36.480Z,5
2023-05-09T15:50:09.823Z,7
2023-05-09T15:52:39.932Z,4
2023-05-09T15:55:10.442Z,8
2023-05-09T15:57:43.353Z,8
2023-05-09T16:00:14.606Z,4
2023-05-09T16:02:45.100Z,4
2023-05-09T16:05:18.873Z,7
2023-05-09T16:07:54.270Z,5
2023-05-09T16:10:24.667Z,4
2023-05-09T16:12:58.668Z,4
2023-05-09T16:15:29.172Z,4
2023-05-09T16:17:59.763Z,4
2023-05-09T16:20:32.257Z,5
2023-05-09T16:23:02.600Z,8
2023-05-09T16:25:35.652Z,5
2023-05-09T16:28:06.138Z,4
2023-05-09T16:30:36.997Z,11
2023-05-09T16:33:07.479Z,5
2023-05-09T16:35:38.030Z,9
2023-05-09T16:38:08.411Z,8
2023-05-09T16:40:38.872Z,5
2023-05-09T16:43:10.300Z,5
2023-05-09T16:45:40.907Z,8
2023-05-09T16:48:11.649Z,5
2023-05-09T16:50:42.070Z,12
2023-05-09T16:53:12.226Z,7
2023-05-09T16:55:42.798Z,20
2023-05-09T16:58:13.129Z,11
2023-05-09T17:00:44.434Z,13
2023-05-09T17:03:15.904Z,12
2023-05-09T17:05:46.488Z,8
2023-05-09T17:08:19.025Z,7
2023-05-09T17:11:01.492Z,4
2023-05-09T17:13:36.570Z,10
2023-05-09T17:16:09.994Z,8
2023-05-09T17:18:41.315Z,10
2023-05-09T17:21:14.517Z,9
2023-05-09T17:23:47.178Z,8
2023-05-09T17:26:20.373Z,11
2023-05-09T17:28:50.822Z,5
2023-05-09T17:31:21.131Z,12
2023-05-09T17:33:51.199Z,11
2023-05-09T17:36:23.532Z,9
2023-05-09T17:39:02.642Z,4
2023-05-09T17:41:33.090Z,11
2023-05-09T17:44:03.724Z,12
2023-05-09T17:46:34.158Z,12
2023-05-09T17:49:04.902Z,9
2023-05-09T17:51:37.937Z,9
2023-05-09T17:54:07.718Z,15
2023-05-09T17:56:40.442Z,7
2023-05-09T17:59:11.343Z,11
2023-05-09T18:01:41.503Z,12
2023-05-09T18:04:11.605Z,9
2023-05-09T18:06:52.169Z,4
2023-05-09T18:09:22.160Z,7
2023-05-09T18:11:52.445Z,12
2023-05-09T18:14:22.889Z,8
2023-05-09T18:16:53.539Z,11
2023-05-09T18:19:24.897Z,8
2023-05-09T18:21:55.578Z,11
2023-05-09T18:24:25.966Z,11
2023-05-09T18:26:56.412Z,7
2023-05-09T18:29:27.085Z,12
2023-05-09T18:31:57.449Z,9
2023-05-09T18:34:27.610Z,16
2023-05-09T18:36:58.305Z,12
2023-05-09T18:39:28.754Z,12
2023-05-09T18:42:00.302Z,12
2023-05-09T18:44:31.626Z,19
2023-05-09T18:47:03.457Z,15
2023-05-09T18:49:33.688Z,12
2023-05-09T18:52:03.434Z,13
2023-05-09T18:54:33.435Z,12
2023-05-09T18:57:06.189Z,12
2023-05-09T18:59:38.388Z,15
2023-05-09T19:02:08.696Z,17
2023-05-09T19:04:41.330Z,12
2023-05-09T19:07:11.624Z,15
2023-05-09T19:09:41.900Z,12
2023-05-09T19:12:11.976Z,12
2023-05-09T19:14:43.294Z,20
2023-05-09T19:17:13.228Z,16
2023-05-09T19:19:43.323Z,17
2023-05-09T19:22:13.880Z,17
2023-05-09T19:24:43.715Z,17
2023-05-09T19:27:13.924Z,24
2023-05-09T19:29:44.301Z,16
2023-05-09T19:32:15.798Z,17
2023-05-09T19:34:46.270Z,24
2023-05-09T19:37:31.786Z,12
2023-05-09T19:40:03.636Z,24
2023-05-09T19:42:35.464Z,19
2023-05-09T19:45:06.116Z,16
2023-05-09T19:47:36.647Z,18
2023-05-09T19:50:07.016Z,17
2023-05-09T19:52:41.527Z,12
2023-05-09T19:55:15.594Z,16
2023-05-09T19:57:47.811Z,16
2023-05-09T20:00:18.511Z,16
2023-05-09T20:02:48.832Z,16
2023-05-09T20:05:19.249Z,16
2023-05-09T20:07:50.081Z,16
2023-05-09T20:10:21.086Z,17
2023-05-09T20:12:53.545Z,16
2023-05-09T20:15:24.295Z,20
2023-05-09T20:17:54.782Z,16
2023-05-09T20:20:26.055Z,16
2023-05-09T20:22:56.013Z,16
2023-05-09T20:25:26.094Z,15
2023-05-09T20:27:57.739Z,18
2023-05-09T20:30:27.450Z,24
2023-05-09T20:32:57.952Z,20
2023-05-09T20:35:28.112Z,21
2023-05-09T20:37:58.238Z,19
2023-05-09T20:40:28.864Z,24
2023-05-09T20:43:02.619Z,23
2023-05-09T20:45:32.694Z,19
2023-05-09T20:48:05.034Z,22
2023-05-09T20:50:39.269Z,18
2023-05-09T20:53:11.012Z,20
2023-05-09T20:55:41.234Z,16
2023-05-09T20:58:11.264Z,17
2023-05-09T21:00:40.976Z,20
2023-05-09T21:03:11.071Z,21
2023-05-09T21:05:42.765Z,21
2023-05-09T21:08:12.617Z,21
2023-05-09T21:10:42.600Z,21
2023-05-09T21:13:12.716Z,23
2023-05-09T21:15:43.036Z,23
2023-05-09T21:18:13.901Z,26
2023-05-09T21:20:45.916Z,24
2023-05-09T21:23:15.962Z,19
2023-05-09T21:25:45.950Z,24
2023-05-09T21:28:15.836Z,27
2023-05-09T21:30:46.813Z,35
2023-05-09T21:33:17.261Z,21
2023-05-09T21:35:47.114Z,25
2023-05-09T21:38:21.309Z,20
2023-05-09T21:40:51.570Z,19
2023-05-09T21:43:22.296Z,20
2023-05-09T21:46:01.977Z,16
2023-05-09T21:48:33.060Z,19
2023-05-09T21:51:03.339Z,21
2023-05-09T21:53:35.658Z,21
2023-05-09T21:56:05.999Z,20
2023-05-09T21:58:36.673Z,24
2023-05-09T22:01:07.012Z,17
2023-05-09T22:03:38.681Z,20
2023-05-09T22:06:08.946Z,24
2023-05-09T22:08:39.138Z,24
2023-05-09T22:11:10.966Z,16
2023-05-09T22:13:40.259Z,19
2023-05-09T22:16:11.429Z,25
2023-05-09T22:18:41.943Z,20
2023-05-09T22:21:15.216Z,20
2023-05-09T22:23:47.381Z,19
2023-05-09T22:26:20.048Z,21
2023-05-09T22:28:51.309Z,24
2023-05-09T22:31:21.697Z,24
2023-05-09T22:33:51.561Z,23
2023-05-09T22:36:21.994Z,21
2023-05-09T22:38:52.267Z,24
2023-05-09T22:41:26.427Z,24
2023-05-09T22:43:57.204Z,23
2023-05-09T22:46:28.026Z,19
2023-05-09T22:48:58.586Z,20
2023-05-09T22:51:28.921Z,23
2023-05-09T22:53:59.373Z,21
2023-05-09T22:56:29.663Z,24
2023-05-09T22:59:00.220Z,22
2023-05-09T23:01:30.506Z,21
2023-05-09T23:04:00.531Z,29
2023-05-09T23:06:31.339Z,24
2023-05-09T23:09:01.791Z,24
2023-05-09T23:11:32.240Z,28
2023-05-09T23:14:03.527Z,20
2023-05-09T23:16:34.446Z,23
2023-05-09T23:19:04.670Z,21
2023-05-09T23:21:35.161Z,28
2023-05-09T23:24:06.130Z,22
2023-05-09T23:26:36.456Z,20
2023-05-09T23:29:06.771Z,31
2023-05-09T23:31:36.653Z,23
2023-05-09T23:34:07.253Z,24
2023-05-09T23:36:37.377Z,20
2023-05-09T23:39:08.070Z,24
2023-05-09T23:41:38.200Z,28
2023-05-09T23:44:08.602Z,25
2023-05-09T23:46:38.800Z,22
2023-05-09T23:49:08.641Z,27
2023-05-09T23:51:38.869Z,20
2023-05-09T23:54:09.097Z,23
2023-05-09T23:56:39.004Z,25
2023-05-09T23:59:09.552Z,24
